Time;durP1;ratioP1;P1;durP2;ratioP2;P2;SDS_P1;SDS_P2;PMS_P1;PMS_P2;Temp;Humidity;BMP_temperature;BMP_pressure;BME280_temperature;BME280_humidity;BME280_pressure;Samples;Min_cycle;Max_cycle;Signal;HPM_P1;HPM_P2
2024/01/09 00:01:15;;;;;;;10.15;5.28;;;-2.60;99.90;;;;;;5011112;28;20061;-55
2024/01/09 00:03:40;;;;;;;14.45;6.72;;;-2.60;99.90;;;;;;5008017;28;20069;-57
2024/01/09 00:06:06;;;;;;;11.80;6.28;;;-2.60;99.90;;;;;;5005232;28;20608;-53
2024/01/09 00:08:31;;;;;;;19.77;6.70;;;-2.70;99.90;;;;;;5008914;28;20129;-54
2024/01/09 00:11:00;;;;;;;16.85;6.72;;;-2.80;99.90;;;;;;5000896;28;20073;-57
2024/01/09 00:13:25;;;;;;;14.43;5.78;;;-2.80;99.90;;;;;;5004657;28;20487;-54
2024/01/09 00:15:51;;;;;;;18.30;7.10;;;-2.80;99.90;;;;;;5000139;28;20161;-59
2024/01/09 00:18:16;;;;;;;11.63;5.20;;;-2.80;99.90;;;;;;5008800;28;20026;-54
2024/01/09 00:20:41;;;;;;;15.40;6.25;;;-2.90;99.90;;;;;;5003308;28;20452;-54
2024/01/09 00:23:07;;;;;;;15.15;6.18;;;-3.00;99.90;;;;;;5006334;28;20042;-56
2024/01/09 00:25:32;;;;;;;19.90;7.03;;;-3.10;99.90;;;;;;5003011;28;20034;-53
2024/01/09 00:27:58;;;;;;;18.50;6.95;;;-3.10;99.90;;;;;;5007580;28;20069;-54
2024/01/09 00:30:24;;;;;;;17.33;6.97;;;-3.10;99.90;;;;;;5004226;28;20041;-54
2024/01/09 00:32:50;;;;;;;19.17;6.32;;;-3.00;99.90;;;;;;5009179;28;20038;-52
2024/01/09 00:35:16;;;;;;;11.35;5.90;;;-3.10;99.90;;;;;;5007880;28;20022;-54
2024/01/09 00:37:42;;;;;;;17.25;5.72;;;-3.10;99.90;;;;;;4992711;28;20033;-56
2024/01/09 00:40:08;;;;;;;14.23;5.97;;;-3.00;99.90;;;;;;5003547;28;20034;-51
2024/01/09 00:42:34;;;;;;;17.70;7.28;;;-3.00;99.90;;;;;;5005705;28;20449;-53
2024/01/09 00:45:01;;;;;;;18.45;6.72;;;-3.00;99.90;;;;;;5004257;28;20030;-53
2024/01/09 00:47:27;;;;;;;13.57;6.18;;;-3.00;99.90;;;;;;5001764;28;20724;-56
2024/01/09 00:49:52;;;;;;;12.27;6.05;;;-3.00;99.90;;;;;;5004428;28;20116;-54
2024/01/09 00:52:18;;;;;;;15.35;5.70;;;-3.00;99.90;;;;;;4987177;28;20117;-53
2024/01/09 00:54:45;;;;;;;13.68;6.47;;;-2.90;99.90;;;;;;5009330;28;20109;-53
2024/01/09 00:57:11;;;;;;;13.18;5.32;;;-2.90;99.90;;;;;;5003489;28;20041;-53
2024/01/09 00:59:36;;;;;;;13.38;5.05;;;-2.90;99.90;;;;;;5003052;28;20030;-53
2024/01/09 01:02:02;;;;;;;16.23;5.47;;;-2.90;99.90;;;;;;5000717;28;20034;-55
2024/01/09 01:04:27;;;;;;;14.32;5.93;;;-2.90;99.90;;;;;;5006170;28;20427;-57
2024/01/09 01:06:53;;;;;;;13.88;5.35;;;-2.90;99.90;;;;;;5005006;28;20026;-53
2024/01/09 01:09:18;;;;;;;14.90;5.93;;;-2.90;99.90;;;;;;5003425;28;20501;-55
2024/01/09 01:11:44;;;;;;;15.95;5.10;;;-2.90;99.90;;;;;;4997093;28;20109;-54
2024/01/09 01:14:09;;;;;;;14.95;6.20;;;-3.00;99.90;;;;;;5007994;28;20385;-53
2024/01/09 01:16:35;;;;;;;14.93;5.32;;;-3.00;99.90;;;;;;5002763;28;20037;-52
2024/01/09 01:19:00;;;;;;;14.30;5.75;;;-3.00;99.90;;;;;;5008154;28;20022;-54
2024/01/09 01:21:26;;;;;;;12.18;5.63;;;-2.90;99.90;;;;;;5004841;28;20038;-53
2024/01/09 01:23:52;;;;;;;13.50;5.53;;;-2.90;99.90;;;;;;5005218;28;20029;-52
2024/01/09 01:26:17;;;;;;;10.27;4.78;;;-2.90;99.90;;;;;;4995700;28;20069;-55
2024/01/09 01:28:43;;;;;;;10.65;4.32;;;-2.90;99.90;;;;;;5005463;28;20026;-57
2024/01/09 01:31:09;;;;;;;13.60;5.50;;;-2.90;99.90;;;;;;5025324;28;20022;-58
2024/01/09 01:33:34;;;;;;;12.45;5.45;;;-2.90;99.90;;;;;;5016784;28;20093;-58
2024/01/09 01:36:00;;;;;;;12.70;4.95;;;-2.90;99.90;;;;;;5013917;28;20056;-58
2024/01/09 01:38:25;;;;;;;12.82;5.55;;;-2.90;99.90;;;;;;5008475;28;20025;-53
2024/01/09 01:40:51;;;;;;;10.98;4.88;;;-2.90;99.90;;;;;;5003212;28;20022;-52
2024/01/09 01:43:17;;;;;;;16.05;5.43;;;-2.90;99.90;;;;;;5005236;28;20033;-52
2024/01/09 01:45:42;;;;;;;16.98;6.20;;;-2.90;99.90;;;;;;5008615;28;20030;-53
2024/01/09 01:48:09;;;;;;;11.70;4.90;;;-2.90;99.90;;;;;;5003398;28;20503;-57
2024/01/09 01:50:34;;;;;;;11.50;5.15;;;-2.90;99.90;;;;;;5003033;28;20019;-55
2024/01/09 01:53:03;;;;;;;15.02;5.07;;;-2.90;99.90;;;;;;5006114;28;20041;-52
2024/01/09 01:55:29;;;;;;;9.98;4.72;;;-3.00;99.90;;;;;;5010043;28;20029;-56
2024/01/09 01:57:57;;;;;;;12.90;5.18;;;-3.00;99.90;;;;;;5006560;28;20028;-57
2024/01/09 02:00:25;;;;;;;13.90;6.30;;;-3.00;99.90;;;;;;5007565;28;20026;-53
2024/01/09 02:02:53;;;;;;;14.38;5.53;;;-3.00;99.90;;;;;;5003011;28;20026;-54
2024/01/09 02:05:20;;;;;;;15.73;4.72;;;-3.00;99.90;;;;;;5004119;28;20030;-51
2024/01/09 02:07:46;;;;;;;13.15;5.65;;;-2.90;99.90;;;;;;5004759;28;20400;-52
2024/01/09 02:10:12;;;;;;;15.48;6.15;;;-2.90;99.90;;;;;;5004900;28;20056;-54
2024/01/09 02:12:38;;;;;;;10.27;4.82;;;-2.90;99.90;;;;;;5006597;28;20447;-56
2024/01/09 02:15:04;;;;;;;18.85;5.50;;;-3.00;99.90;;;;;;5006613;28;20092;-51
2024/01/09 02:17:31;;;;;;;10.68;5.05;;;-3.10;99.90;;;;;;5006965;28;20037;-54
2024/01/09 02:19:59;;;;;;;13.93;4.97;;;-3.20;99.90;;;;;;5006890;28;20022;-55
2024/01/09 02:22:24;;;;;;;13.40;4.93;;;-3.20;99.90;;;;;;5002073;28;20105;-55
2024/01/09 02:24:50;;;;;;;13.32;5.68;;;-3.20;99.90;;;;;;5015662;28;20073;-55
2024/01/09 02:27:40;;;;;;;13.68;7.28;;;-3.20;99.90;;;;;;5014204;28;20506;-51
2024/01/09 02:30:06;;;;;;;13.13;5.78;;;-3.20;99.90;;;;;;5008018;28;20037;-53
2024/01/09 02:32:33;;;;;;;10.82;4.50;;;-3.20;99.90;;;;;;5005764;28;20038;-52
2024/01/09 02:34:59;;;;;;;14.88;6.25;;;-3.20;99.90;;;;;;5004455;28;20108;-51
2024/01/09 02:37:25;;;;;;;16.63;5.95;;;-3.20;99.90;;;;;;5001200;28;20089;-56
2024/01/09 02:39:50;;;;;;;9.77;5.10;;;-3.10;99.90;;;;;;5009095;28;20488;-56
2024/01/09 02:42:16;;;;;;;15.15;5.97;;;-3.10;99.90;;;;;;5004425;28;20022;-53
2024/01/09 02:44:41;;;;;;;12.73;5.35;;;-3.10;99.90;;;;;;5008866;28;20117;-52
2024/01/09 02:47:07;;;;;;;12.27;5.68;;;-3.10;99.90;;;;;;5008939;28;20040;-53
2024/01/09 02:49:33;;;;;;;13.50;5.72;;;-3.10;99.90;;;;;;5010075;28;20161;-50
2024/01/09 02:51:59;;;;;;;10.65;5.25;;;-3.10;99.90;;;;;;5008065;28;20683;-51
2024/01/09 02:54:24;;;;;;;11.57;5.63;;;-3.20;99.90;;;;;;5009291;28;20821;-51
2024/01/09 02:56:50;;;;;;;13.20;5.15;;;-3.10;99.90;;;;;;5009170;28;20480;-51
2024/01/09 02:59:15;;;;;;;11.15;5.35;;;-3.10;99.90;;;;;;5011793;28;20397;-52
2024/01/09 03:01:41;;;;;;;11.07;5.15;;;-3.10;99.90;;;;;;5007816;28;20384;-52
2024/01/09 03:04:06;;;;;;;16.48;5.53;;;-3.20;99.90;;;;;;5009360;28;20096;-51
2024/01/09 03:06:32;;;;;;;12.35;5.50;;;-3.10;99.90;;;;;;5005221;28;20022;-55
2024/01/09 03:08:57;;;;;;;13.60;4.90;;;-3.10;99.90;;;;;;5013335;28;20049;-51
2024/01/09 03:11:23;;;;;;;9.48;5.10;;;-3.10;99.90;;;;;;5006394;28;20030;-51
2024/01/09 03:13:49;;;;;;;15.60;5.50;;;-3.10;99.90;;;;;;5009642;28;20037;-56
2024/01/09 03:16:14;;;;;;;13.80;5.65;;;-3.10;99.90;;;;;;5010592;28;20468;-53
2024/01/09 03:18:43;;;;;;;16.25;4.55;;;-3.20;99.90;;;;;;5011432;28;20084;-54
2024/01/09 03:21:12;;;;;;;12.25;4.70;;;-3.20;99.90;;;;;;5008508;28;20377;-55
2024/01/09 03:23:38;;;;;;;13.82;5.25;;;-3.10;99.90;;;;;;5005375;28;20023;-55
2024/01/09 03:26:03;;;;;;;11.68;4.55;;;-3.20;99.90;;;;;;4973435;28;20116;-55
2024/01/09 03:28:29;;;;;;;11.98;5.38;;;-3.10;99.90;;;;;;5005263;28;20037;-52
2024/01/09 03:30:55;;;;;;;14.63;6.28;;;-3.20;99.90;;;;;;5007680;28;20048;-52
2024/01/09 03:33:21;;;;;;;14.18;6.10;;;-3.20;99.90;;;;;;5011176;28;20036;-51
2024/01/09 03:35:46;;;;;;;13.65;5.30;;;-3.20;99.90;;;;;;5003840;28;20034;-52
2024/01/09 03:38:12;;;;;;;12.50;5.45;;;-3.20;99.90;;;;;;5003935;28;20030;-52
2024/01/09 03:40:38;;;;;;;14.70;5.78;;;-3.20;99.90;;;;;;5006642;28;20030;-54
2024/01/09 03:43:06;;;;;;;13.73;5.28;;;-3.20;99.90;;;;;;5003527;28;20523;-50
2024/01/09 03:45:32;;;;;;;12.35;6.40;;;-3.20;99.90;;;;;;5006332;28;20033;-54
2024/01/09 03:47:57;;;;;;;16.27;5.75;;;-3.20;99.90;;;;;;5005146;28;20038;-53
2024/01/09 03:50:23;;;;;;;15.18;5.18;;;-3.20;99.90;;;;;;5006470;28;20751;-54
2024/01/09 03:52:48;;;;;;;13.27;5.60;;;-3.20;99.90;;;;;;5005151;28;20042;-55
2024/01/09 03:55:15;;;;;;;12.63;5.95;;;-3.20;99.90;;;;;;5000781;28;20088;-53
2024/01/09 03:57:44;;;;;;;12.52;5.53;;;-3.20;99.90;;;;;;5007734;28;20145;-56
2024/01/09 04:00:10;;;;;;;11.68;5.00;;;-3.20;99.90;;;;;;5003433;28;20037;-53
2024/01/09 04:02:37;;;;;;;15.18;5.85;;;-3.20;99.90;;;;;;5005540;28;20026;-54
2024/01/09 04:05:02;;;;;;;14.43;5.43;;;-3.20;99.90;;;;;;5008299;28;20487;-52
2024/01/09 04:07:28;;;;;;;13.23;5.38;;;-3.20;99.90;;;;;;5008969;28;20037;-50
2024/01/09 04:09:53;;;;;;;13.95;5.70;;;-3.30;99.90;;;;;;5008727;28;20459;-55
2024/01/09 04:12:19;;;;;;;12.75;5.30;;;-3.30;99.90;;;;;;5006905;28;20037;-57
2024/01/09 04:14:45;;;;;;;13.10;4.72;;;-3.30;99.90;;;;;;5010155;28;20042;-53
2024/01/09 04:17:11;;;;;;;15.23;5.40;;;-3.30;99.90;;;;;;5007633;28;20026;-53
2024/01/09 04:19:38;;;;;;;10.55;5.00;;;-3.30;99.90;;;;;;5007896;28;20021;-55
2024/01/09 04:22:04;;;;;;;12.32;5.05;;;-3.40;99.90;;;;;;5001762;28;20275;-52
2024/01/09 04:24:29;;;;;;;13.10;5.07;;;-3.40;99.90;;;;;;5005441;28;20026;-54
2024/01/09 04:26:55;;;;;;;14.95;5.90;;;-3.50;99.90;;;;;;5004164;28;20071;-54
2024/01/09 04:29:21;;;;;;;17.17;5.53;;;-3.40;99.90;;;;;;5006747;28;20029;-54
2024/01/09 04:31:46;;;;;;;18.75;6.13;;;-3.40;99.90;;;;;;5004393;28;20030;-54
2024/01/09 04:34:12;;;;;;;10.15;4.97;;;-3.50;99.90;;;;;;5004755;28;20080;-52
2024/01/09 04:36:37;;;;;;;15.75;5.40;;;-3.50;99.90;;;;;;5005965;28;20026;-54
2024/01/09 04:39:03;;;;;;;15.02;5.47;;;-3.60;99.90;;;;;;5008192;28;20444;-57
2024/01/09 04:41:28;;;;;;;14.02;5.18;;;-3.60;99.90;;;;;;5003340;28;20026;-50
2024/01/09 04:43:54;;;;;;;15.07;6.00;;;-3.60;99.90;;;;;;5009768;28;20040;-52
2024/01/09 04:46:19;;;;;;;10.68;5.13;;;-3.70;99.90;;;;;;5003665;28;20030;-52
2024/01/09 04:48:45;;;;;;;13.90;6.10;;;-3.70;99.90;;;;;;5005635;28;20037;-53
2024/01/09 04:51:10;;;;;;;14.77;5.05;;;-3.70;99.90;;;;;;5004570;28;20106;-52
2024/01/09 04:53:36;;;;;;;15.57;6.25;;;-3.70;99.90;;;;;;5002922;28;20370;-53
2024/01/09 04:56:01;;;;;;;15.30;5.95;;;-3.80;99.90;;;;;;5006855;28;20025;-51
2024/01/09 04:58:28;;;;;;;17.00;6.00;;;-3.80;99.90;;;;;;5005300;28;20037;-54
2024/01/09 05:00:54;;;;;;;14.85;5.30;;;-3.90;99.90;;;;;;5007617;28;20025;-55
2024/01/09 05:03:20;;;;;;;12.80;4.93;;;-3.90;99.90;;;;;;5007460;28;20053;-55
2024/01/09 05:05:45;;;;;;;14.77;5.50;;;-3.90;99.90;;;;;;5007824;28;20034;-50
2024/01/09 05:08:11;;;;;;;11.07;5.60;;;-4.00;99.90;;;;;;5003384;28;20060;-52
2024/01/09 05:10:36;;;;;;;14.32;5.47;;;-4.10;99.90;;;;;;5008682;28;20378;-53
2024/01/09 05:13:02;;;;;;;11.32;6.18;;;-4.10;99.90;;;;;;5000531;28;20057;-57
2024/01/09 05:15:27;;;;;;;14.45;5.75;;;-4.10;99.90;;;;;;5004128;28;20520;-52
2024/01/09 05:17:53;;;;;;;14.80;6.15;;;-4.20;99.90;;;;;;5006869;28;20079;-57
2024/01/09 05:20:18;;;;;;;14.27;5.85;;;-4.20;99.90;;;;;;5008585;28;20071;-55
2024/01/09 05:22:44;;;;;;;15.90;5.78;;;-4.10;99.90;;;;;;5004892;28;20026;-52
2024/01/09 05:25:10;;;;;;;10.57;5.68;;;-4.10;99.90;;;;;;5008198;28;20084;-52
2024/01/09 05:27:35;;;;;;;14.32;5.75;;;-4.20;99.90;;;;;;4985176;28;20501;-58
2024/01/09 05:30:02;;;;;;;19.17;5.70;;;-4.20;99.90;;;;;;5007897;28;21515;-53
2024/01/09 05:32:28;;;;;;;15.50;6.38;;;-4.30;99.90;;;;;;5000587;28;20424;-55
2024/01/09 05:34:53;;;;;;;13.93;5.90;;;-4.30;99.90;;;;;;5004643;28;20033;-52
2024/01/09 05:37:19;;;;;;;13.30;6.15;;;-4.20;99.90;;;;;;5008731;28;20029;-53
2024/01/09 05:39:46;;;;;;;13.70;5.65;;;-4.20;99.90;;;;;;5003965;28;20424;-52
2024/01/09 05:42:12;;;;;;;14.02;6.05;;;-4.20;99.90;;;;;;5006085;28;20388;-53
2024/01/09 05:44:37;;;;;;;14.90;6.38;;;-4.40;99.90;;;;;;5006273;28;20023;-52
2024/01/09 05:47:03;;;;;;;13.35;5.75;;;-4.50;99.90;;;;;;5009401;28;20034;-55
2024/01/09 05:49:29;;;;;;;17.48;5.55;;;-4.80;99.90;;;;;;5004907;28;20032;-54
2024/01/09 05:51:55;;;;;;;15.23;6.32;;;;;;;;;;5002109;28;20046;-53
2024/01/09 05:54:21;;;;;;;11.35;5.20;;;-4.70;99.90;;;;;;5017219;28;20064;-54
2024/01/09 05:56:46;;;;;;;13.52;5.38;;;-4.90;99.90;;;;;;5030382;28;20046;-58
2024/01/09 05:59:12;;;;;;;14.63;6.53;;;-5.10;99.90;;;;;;5025207;28;20112;-56
2024/01/09 06:01:38;;;;;;;16.95;6.70;;;-5.00;99.90;;;;;;5027477;28;20029;-58
2024/01/09 06:04:04;;;;;;;17.70;6.20;;;-4.90;99.90;;;;;;5025004;28;20041;-56
2024/01/09 06:06:30;;;;;;;12.98;5.57;;;;;;;;;;5030591;28;20138;-57
2024/01/09 06:08:56;;;;;;;15.35;5.95;;;-5.10;99.90;;;;;;5020704;28;20022;-52
2024/01/09 06:11:21;;;;;;;15.05;7.05;;;-5.30;99.90;;;;;;5003346;28;20460;-53
2024/01/09 06:13:47;;;;;;;16.52;6.40;;;;;;;;;;5003133;28;20385;-52
2024/01/09 06:16:13;;;;;;;15.70;6.68;;;;;;;;;;5004382;28;20042;-54
2024/01/09 06:18:40;;;;;;;15.32;6.18;;;;;;;;;;5000366;28;20030;-51
2024/01/09 06:21:06;;;;;;;12.45;6.43;;;;;;;;;;5007206;28;20369;-55
2024/01/09 06:23:32;;;;;;;13.77;5.63;;;;;;;;;;5012978;28;20030;-54
2024/01/09 06:25:58;;;;;;;18.30;6.25;;;;;;;;;;5010458;28;20141;-53
2024/01/09 06:28:24;;;;;;;14.02;6.45;;;;;;;;;;5008971;28;20038;-53
2024/01/09 06:30:50;;;;;;;29.38;9.88;;;;;;;;;;5010968;28;20427;-52
2024/01/09 06:33:16;;;;;;;21.98;7.68;;;-5.10;99.90;;;;;;5005503;28;20025;-60
2024/01/09 06:35:42;;;;;;;19.50;7.03;;;;;;;;;;5004897;28;20114;-55
2024/01/09 06:38:07;;;;;;;21.48;7.32;;;-5.40;99.90;;;;;;5012615;28;20503;-55
2024/01/09 06:40:33;;;;;;;17.48;6.63;;;-5.60;99.90;;;;;;5005463;28;20412;-55
2024/01/09 06:42:58;;;;;;;19.52;7.07;;;-5.50;99.90;;;;;;5009364;28;20072;-53
2024/01/09 06:45:24;;;;;;;11.82;6.38;;;-5.40;99.90;;;;;;5008117;28;20045;-52
2024/01/09 06:47:50;;;;;;;19.55;7.43;;;-5.50;99.90;;;;;;5008466;28;20388;-56
2024/01/09 06:50:15;;;;;;;23.17;7.63;;;-5.40;99.90;;;;;;5010972;28;20022;-50
2024/01/09 06:52:41;;;;;;;17.75;7.25;;;;;;;;;;5008787;28;20041;-54
2024/01/09 06:55:07;;;;;;;23.63;7.53;;;;;;;;;;5016527;28;20392;-55
2024/01/09 06:57:33;;;;;;;21.92;8.18;;;-5.30;99.90;;;;;;5016800;28;20036;-55
2024/01/09 06:59:58;;;;;;;18.85;7.13;;;-5.10;99.90;;;;;;5012966;28;20034;-57
2024/01/09 07:02:24;;;;;;;20.50;7.78;;;-5.10;99.90;;;;;;5007627;28;20526;-53
2024/01/09 07:04:49;;;;;;;22.85;7.80;;;-5.10;99.90;;;;;;5008413;28;20547;-53
2024/01/09 07:07:15;;;;;;;19.48;7.90;;;-5.00;99.90;;;;;;5013491;28;20025;-57
2024/01/09 07:09:41;;;;;;;21.95;7.45;;;-5.00;99.90;;;;;;5011816;28;20073;-53
2024/01/09 07:12:09;;;;;;;21.05;8.73;;;-5.10;99.90;;;;;;5010774;28;20056;-53
2024/01/09 07:14:35;;;;;;;19.63;7.60;;;-5.10;99.90;;;;;;5010328;28;20028;-55
2024/01/09 07:17:03;;;;;;;19.63;7.00;;;-5.10;99.90;;;;;;5011644;28;20091;-53
2024/01/09 07:19:28;;;;;;;14.30;7.13;;;-5.00;99.90;;;;;;5010558;28;20022;-53
2024/01/09 07:21:54;;;;;;;19.73;8.43;;;-4.90;99.90;;;;;;5010236;28;20108;-57
2024/01/09 07:24:20;;;;;;;16.88;6.95;;;-4.90;99.90;;;;;;5008168;28;20396;-57
2024/01/09 07:26:45;;;;;;;18.77;7.07;;;-4.90;99.90;;;;;;5010160;28;20516;-53
2024/01/09 07:29:16;;;;;;;17.60;7.03;;;-4.80;99.90;;;;;;5012426;28;20500;-52
2024/01/09 07:31:44;;;;;;;19.10;7.22;;;-4.70;99.90;;;;;;5004943;28;20045;-52
2024/01/09 07:34:10;;;;;;;14.82;5.90;;;-4.60;99.90;;;;;;5010089;28;20120;-55
2024/01/09 07:36:35;;;;;;;20.60;7.50;;;-4.60;99.90;;;;;;5009809;28;20058;-52
2024/01/09 07:39:01;;;;;;;24.70;7.32;;;-4.50;99.90;;;;;;5012571;28;20064;-59
2024/01/09 07:41:26;;;;;;;15.82;6.18;;;-4.50;99.90;;;;;;5010122;28;20449;-55
2024/01/09 07:43:52;;;;;;;15.50;6.65;;;-4.40;99.90;;;;;;5009900;28;20578;-54
2024/01/09 07:46:18;;;;;;;15.65;6.65;;;-4.40;99.90;;;;;;5011097;28;20117;-52
2024/01/09 07:48:44;;;;;;;21.42;6.30;;;-4.40;99.90;;;;;;5011238;28;20025;-53
2024/01/09 07:51:09;;;;;;;16.48;6.85;;;-4.40;99.90;;;;;;5011164;28;20489;-52
2024/01/09 07:53:35;;;;;;;21.10;7.65;;;-4.40;99.90;;;;;;5008092;28;20603;-52
2024/01/09 07:56:00;;;;;;;15.80;6.53;;;-4.40;99.90;;;;;;5011064;28;20026;-54
2024/01/09 07:58:26;;;;;;;15.95;7.68;;;-4.40;99.90;;;;;;5011811;28;20030;-56
2024/01/09 08:00:53;;;;;;;17.83;7.63;;;-4.40;99.90;;;;;;5006720;28;20114;-56
2024/01/09 08:03:19;;;;;;;20.20;7.43;;;-4.40;99.90;;;;;;5010591;28;20084;-49
2024/01/09 08:05:44;;;;;;;16.98;6.78;;;-4.50;99.90;;;;;;5012241;28;20026;-53
2024/01/09 08:08:10;;;;;;;17.23;7.78;;;-4.50;99.90;;;;;;4991161;28;20464;-50
2024/01/09 08:10:35;;;;;;;20.10;7.25;;;-4.50;99.90;;;;;;5012440;28;20028;-54
2024/01/09 08:13:01;;;;;;;20.50;7.60;;;-4.50;99.90;;;;;;5014187;28;20054;-53
2024/01/09 08:15:26;;;;;;;13.48;7.18;;;-4.50;99.90;;;;;;5015323;28;20057;-59
2024/01/09 08:17:52;;;;;;;17.63;7.20;;;-4.40;99.90;;;;;;5025555;28;20267;-59
2024/01/09 08:20:18;;;;;;;20.83;8.30;;;-4.40;99.90;;;;;;5023896;28;20038;-54
2024/01/09 08:22:43;;;;;;;21.65;8.00;;;-4.40;99.90;;;;;;5020750;28;20034;-54
2024/01/09 08:25:09;;;;;;;15.93;6.65;;;-4.40;99.90;;;;;;5013162;28;20037;-53
2024/01/09 08:27:34;;;;;;;14.20;5.72;;;-4.30;99.90;;;;;;5011170;28;20564;-52
2024/01/09 08:30:00;;;;;;;21.73;7.05;;;-4.30;99.90;;;;;;5007178;28;20049;-51
2024/01/09 08:32:26;;;;;;;23.75;7.35;;;-4.20;99.90;;;;;;5010495;28;20372;-57
2024/01/09 08:34:51;;;;;;;19.60;6.78;;;-4.20;99.90;;;;;;5007756;28;20391;-55
2024/01/09 08:37:17;;;;;;;18.60;7.20;;;-4.20;99.90;;;;;;5011444;28;20033;-53
2024/01/09 08:39:42;;;;;;;14.57;5.90;;;-4.10;99.90;;;;;;4992780;28;20030;-56
2024/01/09 08:42:08;;;;;;;18.48;7.85;;;-4.10;99.90;;;;;;5008828;28;20101;-56
2024/01/09 08:44:34;;;;;;;22.83;6.45;;;-4.00;99.90;;;;;;5005911;28;20025;-55
2024/01/09 08:46:59;;;;;;;23.88;7.13;;;-3.90;99.90;;;;;;5009535;28;20025;-53
2024/01/09 08:49:25;;;;;;;12.75;5.72;;;-3.90;99.90;;;;;;5011944;28;20053;-53
2024/01/09 08:51:51;;;;;;;19.88;6.22;;;-3.90;99.90;;;;;;5007194;28;20042;-56
2024/01/09 08:54:17;;;;;;;17.40;7.75;;;-3.90;99.90;;;;;;5011503;28;20113;-55
2024/01/09 08:56:42;;;;;;;21.52;6.95;;;-3.80;99.90;;;;;;5007591;28;20026;-53
2024/01/09 08:59:09;;;;;;;20.35;6.78;;;-3.70;99.90;;;;;;5010547;28;20041;-56
2024/01/09 09:01:35;;;;;;;15.32;6.93;;;-3.70;99.90;;;;;;5008345;28;20044;-52
2024/01/09 09:04:02;;;;;;;20.10;6.72;;;-3.60;99.90;;;;;;5009122;28;20029;-57
2024/01/09 09:06:28;;;;;;;18.45;6.78;;;-3.60;99.90;;;;;;5007844;28;20132;-55
2024/01/09 09:08:53;;;;;;;16.63;6.45;;;-3.50;99.90;;;;;;5008503;28;20030;-56
2024/01/09 09:11:19;;;;;;;17.63;6.65;;;-3.40;99.90;;;;;;5007639;28;20053;-54
2024/01/09 09:13:44;;;;;;;16.58;6.68;;;-3.30;99.90;;;;;;5008257;28;20032;-52
2024/01/09 09:16:10;;;;;;;17.98;6.35;;;-3.30;99.90;;;;;;5007816;28;20428;-53
2024/01/09 09:18:36;;;;;;;15.13;6.35;;;-3.20;99.90;;;;;;5009799;28;20493;-56
2024/01/09 09:21:04;;;;;;;22.35;7.90;;;-3.20;99.90;;;;;;5009431;28;20018;-54
2024/01/09 09:23:30;;;;;;;18.92;6.93;;;-3.10;99.90;;;;;;5008813;28;20018;-54
2024/01/09 09:25:56;;;;;;;16.35;5.75;;;-3.10;99.90;;;;;;5007485;28;20018;-55
2024/01/09 09:28:22;;;;;;;13.35;5.93;;;-3.10;99.90;;;;;;5006629;28;20092;-51
2024/01/09 09:30:47;;;;;;;17.95;6.35;;;-3.00;99.90;;;;;;5006620;28;20468;-52
2024/01/09 09:33:13;;;;;;;16.63;6.35;;;-3.00;99.90;;;;;;5009755;28;20460;-55
2024/01/09 09:35:38;;;;;;;12.55;6.03;;;-3.00;99.90;;;;;;5009285;28;20096;-55
2024/01/09 09:38:04;;;;;;;18.20;6.38;;;-2.90;99.90;;;;;;5010758;28;20112;-52
2024/01/09 09:40:30;;;;;;;24.58;6.53;;;-2.80;99.90;;;;;;5008991;28;20018;-52
2024/01/09 09:42:58;;;;;;;18.15;6.72;;;-2.80;99.90;;;;;;5007676;28;20027;-55
2024/01/09 09:45:27;;;;;;;19.13;6.68;;;-2.70;99.90;;;;;;5008124;28;20472;-57
2024/01/09 09:47:56;;;;;;;17.45;7.10;;;-2.70;99.90;;;;;;5009432;28;20083;-52
2024/01/09 09:50:22;;;;;;;23.75;8.05;;;-2.60;99.90;;;;;;5009268;28;20079;-54
2024/01/09 09:52:48;;;;;;;34.90;8.02;;;-2.50;99.90;;;;;;5007954;28;20045;-51
2024/01/09 09:55:14;;;;;;;17.70;6.70;;;-2.50;99.90;;;;;;5007327;28;20082;-52
2024/01/09 09:57:40;;;;;;;26.45;7.15;;;;;;;;;;5008109;28;20037;-53
2024/01/09 10:00:10;;;;;;;18.60;7.05;;;-2.40;99.90;;;;;;5007863;28;20037;-53
2024/01/09 10:02:49;;;;;;;13.38;6.43;;;-2.30;99.90;;;;;;5008466;28;20025;-53
2024/01/09 10:05:17;;;;;;;16.95;6.60;;;-2.20;99.90;;;;;;5008327;28;20030;-57
2024/01/09 10:07:46;;;;;;;17.70;6.03;;;-2.20;99.90;;;;;;5009204;28;20086;-56
2024/01/09 10:10:12;;;;;;;24.42;7.18;;;-2.30;99.90;;;;;;5009426;28;20068;-54
2024/01/09 10:12:39;;;;;;;19.15;7.28;;;-2.30;99.90;;;;;;5010522;28;20030;-52
2024/01/09 10:15:12;;;;;;;18.63;6.72;;;-2.30;99.90;;;;;;5007436;28;20107;-55
2024/01/09 10:17:39;;;;;;;19.03;6.53;;;-2.20;99.90;;;;;;5009174;28;20026;-55
2024/01/09 10:20:08;;;;;;;22.52;6.93;;;-2.10;99.90;;;;;;5007865;28;20281;-53
2024/01/09 10:22:35;;;;;;;18.77;6.47;;;-1.90;99.90;;;;;;5008607;28;20103;-60
2024/01/09 10:25:04;;;;;;;15.15;6.35;;;-1.90;99.90;;;;;;5009002;28;20164;-54
2024/01/09 10:27:30;;;;;;;13.80;6.05;;;-1.80;99.90;;;;;;5010486;28;20030;-59
2024/01/09 10:29:57;;;;;;;15.75;6.82;;;-1.80;99.90;;;;;;5009223;28;20026;-55
2024/01/09 10:32:23;;;;;;;16.38;6.68;;;-1.70;99.90;;;;;;4991534;28;20407;-53
2024/01/09 10:34:49;;;;;;;17.90;6.63;;;-1.50;99.90;;;;;;5010902;28;20018;-53
2024/01/09 10:37:15;;;;;;;19.30;6.60;;;-1.40;99.90;;;;;;5007099;28;20550;-53
2024/01/09 10:39:42;;;;;;;13.50;6.30;;;-1.20;99.90;;;;;;5009691;28;20501;-52
2024/01/09 10:42:11;;;;;;;16.55;6.82;;;;;;;;;;5007507;28;20496;-52
2024/01/09 10:44:40;;;;;;;16.50;7.10;;;-1.20;99.90;;;;;;5005501;28;20463;-57
2024/01/09 10:47:09;;;;;;;17.20;6.25;;;-1.10;99.90;;;;;;5008173;28;20388;-53
2024/01/09 10:49:38;;;;;;;19.45;5.97;;;-1.10;99.90;;;;;;5009716;28;20404;-56
2024/01/09 10:52:06;;;;;;;14.52;6.57;;;-1.00;99.90;;;;;;5006592;28;20034;-51
2024/01/09 10:54:33;;;;;;;10.00;5.30;;;-0.90;99.90;;;;;;4992304;28;20030;-55
2024/01/09 10:57:02;;;;;;;18.13;6.15;;;-0.90;99.90;;;;;;5009501;28;20026;-53
2024/01/09 10:59:29;;;;;;;14.35;6.45;;;-0.80;99.90;;;;;;5010679;28;20497;-55
2024/01/09 11:01:54;;;;;;;15.20;5.68;;;-0.80;99.90;;;;;;5010090;28;20488;-53
2024/01/09 11:04:20;;;;;;;13.95;5.75;;;-0.70;99.90;;;;;;5011686;28;20052;-52
2024/01/09 11:06:47;;;;;;;11.73;5.05;;;-0.70;99.90;;;;;;5014309;28;20514;-54
2024/01/09 11:09:15;;;;;;;12.45;5.50;;;-0.60;99.90;;;;;;5014885;28;20038;-53
2024/01/09 11:11:42;;;;;;;13.73;5.85;;;-0.50;99.90;;;;;;5013799;28;20030;-53
2024/01/09 11:14:10;;;;;;;11.18;5.30;;;-0.40;99.90;;;;;;5013442;28;20026;-53
2024/01/09 11:16:40;;;;;;;17.02;5.57;;;-0.30;99.90;;;;;;5012767;28;20025;-53
2024/01/09 11:19:08;;;;;;;13.48;5.90;;;-0.20;99.90;;;;;;5014135;28;20053;-55
2024/01/09 11:21:33;;;;;;;11.50;5.20;;;-0.20;99.90;;;;;;5014791;28;20061;-53
2024/01/09 11:24:02;;;;;;;11.50;5.28;;;-0.20;99.90;;;;;;5015365;28;20490;-55
2024/01/09 11:26:31;;;;;;;13.20;5.68;;;-0.20;99.90;;;;;;5020737;28;20030;-54
2024/01/09 11:28:58;;;;;;;12.77;5.05;;;-0.10;99.90;;;;;;5013071;28;20034;-53
2024/01/09 11:31:26;;;;;;;10.93;4.95;;;0.00;99.90;;;;;;5015401;28;20064;-51
2024/01/09 11:33:54;;;;;;;13.32;5.25;;;0.10;99.90;;;;;;5008247;28;20128;-52
2024/01/09 11:36:26;;;;;;;10.60;5.10;;;0.10;99.90;;;;;;5003043;28;20440;-50
2024/01/09 11:38:53;;;;;;;14.90;5.75;;;0.10;99.90;;;;;;5010095;28;20125;-55
2024/01/09 11:41:21;;;;;;;12.98;6.05;;;0.10;99.90;;;;;;5010120;28;20014;-56
2024/01/09 11:44:01;;;;;;;15.60;4.40;;;0.10;99.90;;;;;;5007247;28;20511;-56
2024/01/09 11:46:28;;;;;;;10.45;5.47;;;0.20;99.90;;;;;;5005398;28;20483;-52
2024/01/09 11:48:54;;;;;;;11.43;4.75;;;0.20;99.90;;;;;;5009014;28;20021;-52
2024/01/09 11:51:23;;;;;;;19.48;5.15;;;0.40;99.90;;;;;;5005021;28;20034;-55
2024/01/09 11:53:50;;;;;;;12.40;5.32;;;0.30;99.90;;;;;;5011151;28;20042;-55
2024/01/09 11:56:16;;;;;;;11.60;5.32;;;0.40;99.90;;;;;;4988164;28;20105;-53
2024/01/09 11:58:47;;;;;;;13.35;4.88;;;0.50;99.90;;;;;;5008878;28;20067;-51
2024/01/09 12:01:13;;;;;;;12.43;4.63;;;0.60;99.90;;;;;;5009714;28;20022;-52
2024/01/09 12:03:38;;;;;;;11.10;5.80;;;0.70;99.90;;;;;;5008650;28;20511;-52
2024/01/09 12:06:05;;;;;;;10.52;4.88;;;0.80;99.90;;;;;;5011225;28;20476;-52
2024/01/09 12:08:33;;;;;;;13.18;5.18;;;0.80;99.90;;;;;;5005494;28;20072;-53
2024/01/09 12:11:00;;;;;;;15.35;5.63;;;1.00;99.70;;;;;;5007096;28;20033;-52
2024/01/09 12:13:26;;;;;;;14.45;4.85;;;1.10;99.10;;;;;;5005602;28;20052;-52
2024/01/09 12:15:52;;;;;;;10.32;5.45;;;1.20;98.50;;;;;;5008416;28;20068;-53
2024/01/09 12:18:17;;;;;;;10.02;4.38;;;1.20;97.90;;;;;;5004828;28;20038;-52
2024/01/09 12:20:43;;;;;;;10.07;4.20;;;1.30;97.60;;;;;;5006866;28;20048;-57
2024/01/09 12:23:09;;;;;;;13.40;5.28;;;;;;;;;;5007609;28;20049;-55
2024/01/09 12:25:35;;;;;;;12.93;5.07;;;1.60;96.80;;;;;;5005731;28;20057;-56
2024/01/09 12:28:02;;;;;;;11.48;5.00;;;1.70;96.40;;;;;;5007249;28;20140;-54
2024/01/09 12:30:28;;;;;;;6.97;4.25;;;1.90;96.70;;;;;;4993629;28;20030;-53
2024/01/09 12:32:54;;;;;;;13.48;5.55;;;2.10;96.50;;;;;;5008384;28;20044;-52
2024/01/09 12:35:21;;;;;;;13.77;5.45;;;2.10;96.20;;;;;;5005878;28;20416;-53
2024/01/09 12:37:47;;;;;;;8.75;4.65;;;;;;;;;;5004130;28;20037;-50